Time;durP1;ratioP1;P1;durP2;ratioP2;P2;SDS_P1;SDS_P2;PMS_P1;PMS_P2;Temp;Humidity;BMP_temperature;BMP_pressure;BME280_temperature;BME280_humidity;BME280_pressure;Samples;Min_cycle;Max_cycle;Signal;HPM_P1;HPM_P2
2022/09/22 00:01:52;;;;;;;;;;;;;;;11.82;57.84;100894.22;5048007;28;19924;-89
2022/09/22 00:04:20;;;;;;;;;;;;;;;11.79;57.78;100890.00;5028178;28;19920;-90
2022/09/22 00:06:46;;;;;;;;;;;;;;;11.80;57.67;100885.47;5046135;28;20365;-89
2022/09/22 00:09:12;;;;;;;;;;;;;;;11.74;57.87;100875.34;5006819;28;19917;-86
2022/09/22 00:11:39;;;;;;;;;;;;;;;11.64;58.42;100886.25;5031722;28;19978;-88
2022/09/22 00:14:10;;;;;;;;;;;;;;;11.65;58.43;100882.53;5029856;28;20002;-88
2022/09/22 00:16:41;;;;;;;;;;;;;;;11.64;58.56;100870.09;5029775;28;19924;-87
2022/09/22 00:19:07;;;;;;;;;;;;;;;11.63;58.18;100865.69;5046720;28;19928;-87
2022/09/22 00:21:33;;;;;;;;;;;;;;;11.62;58.42;100864.88;5021589;28;19921;-88
2022/09/22 00:23:59;;;;;;;;;;;;;;;11.56;58.74;100868.19;5029365;28;19917;-87
2022/09/22 00:26:25;;;;;;;;;;;;;;;11.57;58.50;100864.50;5030433;28;19912;-88
2022/09/22 00:28:50;;;;;;;;;;;;;;;11.56;58.41;100865.50;5049558;28;19982;-88
2022/09/22 00:31:22;;;;;;;;;;;;;;;11.57;58.47;100869.91;5030448;28;19924;-87
2022/09/22 00:33:57;;;;;;;;;;;;;;;11.68;58.54;100865.22;5043874;28;20373;-88
2022/09/22 00:36:24;;;;;;;;;;;;;;;11.65;58.56;100870.94;5048024;28;19987;-87
2022/09/22 00:38:50;;;;;;;;;;;;;;;11.68;58.13;100865.22;5033214;28;19967;-88
2022/09/22 00:41:20;;;;;;;;;;;;;;;11.59;58.42;100864.38;5030243;28;19920;-88
2022/09/22 00:43:46;;;;;;;;;;;;;;;11.63;58.33;100863.00;5033580;28;19917;-89
2022/09/22 00:46:14;;;;;;;;;;;;;;;11.61;58.67;100865.88;5032922;28;19956;-88
2022/09/22 00:48:59;;;;;;;;;;;;;;;11.59;58.56;100862.50;5031181;28;19974;-89
2022/09/22 00:51:26;;;;;;;;;;;;;;;11.56;58.53;100870.88;5028869;28;19978;-89
2022/09/22 00:53:54;;;;;;;;;;;;;;;11.61;58.73;100863.19;5031644;28;19923;-89
2022/09/22 00:56:32;;;;;;;;;;;;;;;11.58;58.89;100871.56;5045637;28;19917;-87
2022/09/22 00:58:59;;;;;;;;;;;;;;;11.57;58.97;100869.91;5026140;28;19925;-88
2022/09/22 01:01:24;;;;;;;;;;;;;;;11.62;58.81;100864.88;5047953;28;19920;-90
2022/09/22 01:03:53;;;;;;;;;;;;;;;11.57;59.04;100858.28;5029451;28;20329;-89
2022/09/22 01:06:20;;;;;;;;;;;;;;;11.53;59.51;100863.16;5017026;28;19966;-86
2022/09/22 01:08:45;;;;;;;;;;;;;;;11.58;59.05;100859.97;5049920;28;19925;-88
2022/09/22 01:11:12;;;;;;;;;;;;;;;11.54;59.29;100853.22;5027451;28;19932;-88
2022/09/22 01:14:01;;;;;;;;;;;;;;;11.48;59.48;100854.72;5030203;28;19959;-89
2022/09/22 01:16:52;;;;;;;;;;;;;;;11.47;59.40;100852.19;5026961;28;19923;-88
2022/09/22 01:19:28;;;;;;;;;;;;;;;11.41;59.84;100848.28;5000381;28;19970;-89
2022/09/22 01:21:53;;;;;;;;;;;;;;;11.41;59.88;100851.81;5007717;28;19928;-89
2022/09/22 01:24:21;;;;;;;;;;;;;;;11.37;59.76;100846.91;5042294;28;20094;-88
2022/09/22 01:26:57;;;;;;;;;;;;;;;11.37;59.94;100849.63;5051182;28;19927;-88
2022/09/22 01:29:27;;;;;;;;;;;;;;;11.43;59.65;100851.66;5047179;28;19901;-88
2022/09/22 01:32:09;;;;;;;;;;;;;;;11.38;60.12;100851.31;5047904;28;20411;-89
2022/09/22 01:34:48;;;;;;;;;;;;;;;11.36;60.17;100856.00;5041298;28;19924;-88
2022/09/22 01:37:22;;;;;;;;;;;;;;;11.39;60.09;100867.28;5055696;28;19923;-87
2022/09/22 01:39:50;;;;;;;;;;;;;;;11.35;60.06;100867.78;5037774;28;19966;-88
2022/09/22 01:42:27;;;;;;;;;;;;;;;11.39;60.01;100871.84;5036257;28;19916;-88
2022/09/22 01:44:53;;;;;;;;;;;;;;;11.40;59.41;100865.44;5032830;28;19928;-88
2022/09/22 01:47:23;;;;;;;;;;;;;;;11.35;60.38;100870.47;5030866;28;20007;-89
2022/09/22 01:49:53;;;;;;;;;;;;;;;11.47;59.79;100874.59;5034914;28;20411;-88
2022/09/22 01:52:23;;;;;;;;;;;;;;;11.44;59.90;100874.88;5027487;28;19921;-88
2022/09/22 01:54:52;;;;;;;;;;;;;;;11.41;60.02;100875.22;5026216;28;19960;-89
2022/09/22 01:57:36;;;;;;;;;;;;;;;11.56;59.34;100872.75;5033319;28;19924;-89
2022/09/22 02:00:04;;;;;;;;;;;;;;;11.43;59.89;100877.75;5028060;28;19972;-89
2022/09/22 02:02:31;;;;;;;;;;;;;;;11.36;59.97;100867.63;5033373;28;19917;-89
2022/09/22 02:04:58;;;;;;;;;;;;;;;11.36;60.29;100873.00;5030729;28;19942;-88
2022/09/22 02:07:24;;;;;;;;;;;;;;;11.42;60.36;100868.81;5033106;28;19936;-87
2022/09/22 02:09:50;;;;;;;;;;;;;;;11.36;60.28;100877.56;5052566;28;19912;-86
2022/09/22 02:12:18;;;;;;;;;;;;;;;11.32;60.91;100876.19;5032618;28;19927;-87
2022/09/22 02:14:45;;;;;;;;;;;;;;;11.43;60.59;100873.22;5058378;28;19918;-87
2022/09/22 02:17:16;;;;;;;;;;;;;;;11.44;60.79;100866.81;5046478;28;20359;-87
2022/09/22 02:19:41;;;;;;;;;;;;;;;11.51;60.98;100864.31;5053160;28;19928;-88
2022/09/22 02:22:11;;;;;;;;;;;;;;;11.49;60.55;100864.47;5053386;28;19985;-89
2022/09/22 02:24:37;;;;;;;;;;;;;;;11.56;60.23;100870.88;5051717;28;19917;-87
2022/09/22 02:27:34;;;;;;;;;;;;;;;11.45;60.90;100855.03;5034028;28;20003;-88
2022/09/22 02:30:26;;;;;;;;;;;;;;;11.37;60.89;100858.53;5032663;28;20059;-88
2022/09/22 02:32:53;;;;;;;;;;;;;;;11.32;60.75;100866.25;5049100;28;19967;-89
2022/09/22 02:35:18;;;;;;;;;;;;;;;11.39;60.89;100867.28;5034413;28;19924;-88
2022/09/22 02:37:52;;;;;;;;;;;;;;;11.36;60.79;100867.63;5053536;28;19912;-88
2022/09/22 02:40:21;;;;;;;;;;;;;;;11.40;60.79;100868.13;5047072;28;19917;-87
2022/09/22 02:42:46;;;;;;;;;;;;;;;11.34;60.96;100861.56;5058327;28;19952;-89
2022/09/22 02:45:16;;;;;;;;;;;;;;;11.43;60.73;100873.22;5058604;28;19940;-88
2022/09/22 02:47:46;;;;;;;;;;;;;;;11.49;60.71;100869.84;5043323;28;19990;-87
2022/09/22 02:50:12;;;;;;;;;;;;;;;11.40;61.00;100873.50;5033757;28;19975;-88
2022/09/22 02:52:38;;;;;;;;;;;;;;;11.36;60.89;100881.09;5025405;28;19955;-89
2022/09/22 02:55:08;;;;;;;;;;;;;;;11.39;61.06;100867.28;5029215;28;19913;-87
2022/09/22 02:57:34;;;;;;;;;;;;;;;11.49;60.84;100869.00;5049444;28;19923;-88
2022/09/22 03:00:00;;;;;;;;;;;;;;;11.45;60.78;100868.50;5020769;28;19917;-87
2022/09/22 03:02:25;;;;;;;;;;;;;;;11.39;61.00;100866.44;5049748;28;19916;-89
2022/09/22 03:04:50;;;;;;;;;;;;;;;11.47;60.79;100862.94;5017104;28;19923;-88
2022/09/22 03:07:16;;;;;;;;;;;;;;;11.55;60.60;100861.13;5033089;28;19916;-88
2022/09/22 03:09:42;;;;;;;;;;;;;;;11.51;60.49;100861.63;5031040;28;19939;-89
2022/09/22 03:12:08;;;;;;;;;;;;;;;11.53;60.46;100863.16;5030887;28;19936;-88
2022/09/22 03:14:35;;;;;;;;;;;;;;;11.55;60.54;100855.75;5047255;28;19928;-89
2022/09/22 03:17:01;;;;;;;;;;;;;;;11.37;60.61;100847.75;5050323;28;20388;-89
2022/09/22 03:19:28;;;;;;;;;;;;;;;11.41;61.01;100854.50;5043090;28;19917;-87
2022/09/22 03:21:53;;;;;;;;;;;;;;;11.05;62.10;100858.34;5035125;28;19916;-90
2022/09/22 03:24:18;;;;;;;;;;;;;;;10.86;62.86;100848.66;5032272;28;21690;-87
2022/09/22 03:26:46;;;;;;;;;;;;;;;10.89;63.02;100853.75;5047382;28;19913;-89
2022/09/22 03:29:13;;;;;;;;;;;;;;;10.90;62.94;100847.34;5050157;28;19924;-88
2022/09/22 03:31:38;;;;;;;;;;;;;;;10.88;62.86;100847.50;5030387;28;19925;-89
2022/09/22 03:34:05;;;;;;;;;;;;;;;10.94;62.93;100856.78;5030137;28;19920;-90
2022/09/22 03:36:30;;;;;;;;;;;;;;;11.04;62.67;100868.28;5030072;28;19921;-88
2022/09/22 03:38:58;;;;;;;;;;;;;;;11.07;62.42;100865.25;5047500;28;19924;-89
2022/09/22 03:41:24;;;;;;;;;;;;;;;11.01;62.23;100865.91;5048103;28;19986;-88
2022/09/22 03:43:51;;;;;;;;;;;;;;;10.96;62.43;100863.69;5029919;28;19921;-89
2022/09/22 03:46:17;;;;;;;;;;;;;;;10.96;62.73;100868.25;5048451;28;20296;-88
2022/09/22 03:48:43;;;;;;;;;;;;;;;10.98;62.51;100868.94;5044976;28;19983;-86
2022/09/22 03:51:09;;;;;;;;;;;;;;;11.05;62.34;100864.59;5049184;28;20360;-91
2022/09/22 03:53:36;;;;;;;;;;;;;;;11.07;62.24;100867.94;5021780;28;20018;-94
2022/09/22 03:56:12;;;;;;;;;;;;;;;10.93;62.76;100868.53;5024000;28;19983;-93
2022/09/22 03:58:44;;;;;;;;;;;;;;;10.94;62.62;100868.41;5046160;28;20089;-91
2022/09/22 04:01:14;;;;;;;;;;;;;;;10.96;62.44;100879.00;5030997;28;19921;-93
2022/09/22 04:03:42;;;;;;;;;;;;;;;10.94;62.58;100881.00;5039305;28;19913;-94
2022/09/22 04:06:12;;;;;;;;;;;;;;;10.97;62.56;100894.13;5019045;28;19989;-93
2022/09/22 04:08:43;;;;;;;;;;;;;;;10.92;62.67;100891.06;5049488;28;19921;-92
2022/09/22 04:11:15;;;;;;;;;;;;;;;10.82;62.83;100895.72;5044536;28;19928;-93
2022/09/22 04:13:43;;;;;;;;;;;;;;;10.93;62.56;100898.13;5022781;28;19912;-95
2022/09/22 04:16:08;;;;;;;;;;;;;;;10.88;62.83;100900.44;5047564;28;19931;-91
2022/09/22 04:18:38;;;;;;;;;;;;;;;10.92;62.36;100901.84;5023873;28;20301;-94
2022/09/22 04:21:14;;;;;;;;;;;;;;;10.97;62.22;100902.19;5032402;28;19948;-93
2022/09/22 04:23:48;;;;;;;;;;;;;;;10.84;62.66;100891.88;5045023;28;20451;-93
2022/09/22 04:26:17;;;;;;;;;;;;;;;10.83;62.84;100902.78;5016916;28;19917;-93
2022/09/22 04:28:45;;;;;;;;;;;;;;;10.71;63.08;100900.34;5018436;28;19913;-93
2022/09/22 04:31:11;;;;;;;;;;;;;;;10.73;63.38;100901.03;5051940;28;19924;-91
2022/09/22 04:33:38;;;;;;;;;;;;;;;10.77;63.02;100910.47;5031295;28;19999;-90
2022/09/22 04:36:03;;;;;;;;;;;;;;;10.85;62.87;100906.16;5047638;28;19916;-91
2022/09/22 04:38:30;;;;;;;;;;;;;;;10.92;62.83;100909.91;5017695;28;19975;-94
2022/09/22 04:40:57;;;;;;;;;;;;;;;10.88;62.88;100914.75;5007713;28;19992;-94
2022/09/22 04:43:24;;;;;;;;;;;;;;;10.89;62.49;100911.06;5055971;28;19916;-93
2022/09/22 04:45:52;;;;;;;;;;;;;;;10.99;62.18;100916.34;5063364;28;20351;-91
2022/09/22 04:48:17;;;;;;;;;;;;;;;11.04;62.32;100916.72;5072484;28;19916;-92
2022/09/22 04:50:55;;;;;;;;;;;;;;;10.98;62.26;100917.34;5058673;28;19908;-91
2022/09/22 04:54:01;;;;;;;;;;;;;;;11.25;61.75;100924.41;5069424;28;19911;-91
2022/09/22 04:56:28;;;;;;;;;;;;;;;11.35;61.34;100921.59;5071180;28;19927;-91
2022/09/22 04:59:07;;;;;;;;;;;;;;;11.30;61.21;100918.56;5025227;28;19917;-91
2022/09/22 05:02:02;;;;;;;;;;;;;;;11.35;60.91;100919.75;5015714;28;19984;-91
2022/09/22 05:07:54;;;;;;;;;;;;;;;11.30;61.12;100923.94;5417844;22;19985;-92
2022/09/22 05:10:49;;;;;;;;;;;;;;;11.41;60.76;100940.66;5076147;28;19939;-92
2022/09/22 05:13:29;;;;;;;;;;;;;;;11.45;60.67;100938.50;5054886;28;19959;-92
2022/09/22 05:16:14;;;;;;;;;;;;;;;11.63;60.34;100933.03;5051436;28;19924;-92
2022/09/22 05:18:41;;;;;;;;;;;;;;;11.50;60.50;100928.09;5047029;28;20356;-91
2022/09/22 05:21:07;;;;;;;;;;;;;;;11.55;60.36;100933.84;5066867;28;19916;-94
2022/09/22 05:23:38;;;;;;;;;;;;;;;11.56;60.27;100938.22;5050952;28;19912;-92
2022/09/22 05:26:14;;;;;;;;;;;;;;;11.70;60.09;100939.44;5066189;28;20083;-94
2022/09/22 05:28:50;;;;;;;;;;;;;;;11.81;59.90;100941.88;5067987;28;19920;-92
2022/09/22 05:31:21;;;;;;;;;;;;;;;11.84;59.72;100946.09;5053233;28;19983;-91
2022/09/22 05:33:49;;;;;;;;;;;;;;;12.01;59.08;100947.00;5044557;28;19916;-89
2022/09/22 05:36:20;;;;;;;;;;;;;;;12.20;58.64;100948.63;5053977;28;19916;-91
2022/09/22 05:38:47;;;;;;;;;;;;;;;12.35;58.26;100948.81;5063163;28;19916;-90
2022/09/22 05:41:14;;;;;;;;;;;;;;;12.46;57.98;100948.50;5051982;28;19916;-90
2022/09/22 05:43:40;;;;;;;;;;;;;;;12.41;58.18;100949.00;5073537;28;19920;-91
2022/09/22 05:46:09;;;;;;;;;;;;;;;12.52;57.93;100957.75;5072641;28;20019;-94
2022/09/22 05:48:39;;;;;;;;;;;;;;;12.57;57.91;100952.69;5035452;28;19913;-88
2022/09/22 05:51:05;;;;;;;;;;;;;;;12.66;57.64;100957.09;5055046;28;19913;-91
2022/09/22 05:53:31;;;;;;;;;;;;;;;12.79;56.95;100956.63;5058262;28;20415;-87
2022/09/22 05:55:56;;;;;;;;;;;;;;;12.85;56.96;100962.19;5071147;28;19917;-89
2022/09/22 05:58:28;;;;;;;;;;;;;;;12.65;57.63;100967.06;5074775;28;19952;-93
2022/09/22 06:00:55;;;;;;;;;;;;;;;12.88;56.85;100967.25;5054853;28;19916;-93
2022/09/22 06:03:27;;;;;;;;;;;;;;;12.94;56.74;100960.31;5053696;28;19928;-92
2022/09/22 06:05:55;;;;;;;;;;;;;;;13.05;56.60;100961.84;5075577;28;19908;-92
2022/09/22 06:08:23;;;;;;;;;;;;;;;13.21;56.15;100959.13;5074487;28;19913;-92
2022/09/22 06:10:55;;;;;;;;;;;;;;;13.10;56.90;100951.38;5071534;28;19927;-93
2022/09/22 06:13:21;;;;;;;;;;;;;;;13.22;55.95;100957.25;5080219;28;19912;-88
2022/09/22 06:15:47;;;;;;;;;;;;;;;13.41;55.48;100943.41;5086263;28;19920;-84
2022/09/22 06:18:12;;;;;;;;;;;;;;;13.35;56.03;100941.41;5072189;28;19917;-90
2022/09/22 06:20:38;;;;;;;;;;;;;;;13.39;55.91;100939.19;5074095;28;20384;-83
2022/09/22 06:23:03;;;;;;;;;;;;;;;13.73;55.14;100934.34;5069401;28;19913;-88
2022/09/22 06:25:29;;;;;;;;;;;;;;;13.91;54.54;100933.28;5044455;28;19999;-84
2022/09/22 06:28:03;;;;;;;;;;;;;;;13.96;54.47;100938.16;5055082;28;20003;-88
2022/09/22 06:30:29;;;;;;;;;;;;;;;14.19;54.04;100938.19;5057944;28;19992;-86
2022/09/22 06:32:55;;;;;;;;;;;;;;;14.34;53.64;100931.00;5043674;28;19912;-85
2022/09/22 06:35:24;;;;;;;;;;;;;;;14.54;52.97;100937.66;5080735;28;19979;-90
2022/09/22 06:37:57;;;;;;;;;;;;;;;14.72;52.85;100934.63;5068341;28;19916;-83
2022/09/22 06:40:23;;;;;;;;;;;;;;;14.94;51.91;100934.81;5066814;28;19927;-89
2022/09/22 06:42:49;;;;;;;;;;;;;;;15.17;51.21;100938.31;5052472;28;19956;-88
2022/09/22 06:45:16;;;;;;;;;;;;;;;14.93;51.64;100946.66;5049837;28;20406;-91
2022/09/22 06:47:43;;;;;;;;;;;;;;;15.08;51.02;100944.00;5054362;28;19980;-90
2022/09/22 06:50:08;;;;;;;;;;;;;;;15.01;51.39;100943.03;5053024;28;19924;-90
2022/09/22 06:52:35;;;;;;;;;;;;;;;15.34;50.85;100946.28;5047123;28;19912;-89
2022/09/22 06:55:03;;;;;;;;;;;;;;;15.61;50.21;100944.78;5062676;28;19920;-88
2022/09/22 06:57:34;;;;;;;;;;;;;;;15.75;49.83;100943.97;5072606;28;19916;-89
2022/09/22 07:00:11;;;;;;;;;;;;;;;15.84;49.47;100939.28;5037076;28;19981;-89
2022/09/22 07:02:36;;;;;;;;;;;;;;;15.95;49.12;100946.94;5045916;28;19936;-88
2022/09/22 07:05:02;;;;;;;;;;;;;;;16.09;48.85;100941.69;5072055;28;19924;-85
2022/09/22 07:07:29;;;;;;;;;;;;;;;16.13;49.01;100949.28;5054259;28;19928;-87
2022/09/22 07:09:55;;;;;;;;;;;;;;;16.02;49.53;100953.28;5037726;28;19967;-83
2022/09/22 07:12:21;;;;;;;;;;;;;;;15.88;49.34;100956.03;5068407;28;19916;-87
2022/09/22 07:14:48;;;;;;;;;;;;;;;15.86;49.81;100955.38;5062332;28;20341;-88
2022/09/22 07:17:15;;;;;;;;;;;;;;;16.01;50.09;100959.75;5066192;28;19998;-90
2022/09/22 07:19:40;;;;;;;;;;;;;;;16.03;49.40;100959.56;5048076;28;19920;-89
2022/09/22 07:22:06;;;;;;;;;;;;;;;16.08;49.64;100959.81;5048682;28;19917;-87
2022/09/22 07:24:32;;;;;;;;;;;;;;;16.22;49.27;100961.69;5064107;28;19916;-88
2022/09/22 07:27:03;;;;;;;;;;;;;;;16.32;48.76;100966.81;5048916;28;19916;-86
2022/09/22 07:29:29;;;;;;;;;;;;;;;16.64;48.76;100978.19;5065438;28;19916;-86
2022/09/22 07:31:58;;;;;;;;;;;;;;;16.57;48.34;100972.69;5038461;28;19978;-86
2022/09/22 07:34:26;;;;;;;;;;;;;;;16.74;48.41;100977.88;5043005;28;19947;-86
2022/09/22 07:36:52;;;;;;;;;;;;;;;16.85;47.95;100977.38;5060846;28;19916;-87
2022/09/22 07:39:17;;;;;;;;;;;;;;;16.99;47.39;100976.47;5041975;28;19974;-82
2022/09/22 07:41:42;;;;;;;;;;;;;;;17.19;47.09;100981.25;5026758;28;19970;-82
2022/09/22 07:46:52;;;;;;;;;;;;;;;17.44;46.90;100974.34;5040038;28;19919;-85
2022/09/22 07:49:20;;;;;;;;;;;;;;;17.62;46.37;100967.53;5050963;28;20345;-87
2022/09/22 07:51:45;;;;;;;;;;;;;;;17.35;46.98;100971.94;5053611;28;19958;-83
2022/09/22 07:54:11;;;;;;;;;;;;;;;17.56;46.91;100965.59;5070590;28;19928;-82
2022/09/22 07:56:40;;;;;;;;;;;;;;;17.90;46.44;100962.06;5043539;28;19924;-83
2022/09/22 07:59:08;;;;;;;;;;;;;;;18.16;45.53;100961.34;5054315;28;19908;-82
2022/09/22 08:01:36;;;;;;;;;;;;;;;18.08;46.05;100959.66;5052772;28;19916;-83
2022/09/22 08:04:01;;;;;;;;;;;;;;;18.32;45.27;100957.44;5057818;28;19919;-80
2022/09/22 08:06:27;;;;;;;;;;;;;;;18.09;45.29;100949.59;5052771;28;19971;-83
2022/09/22 08:08:54;;;;;;;;;;;;;;;18.07;46.12;100951.69;5069196;28;19972;-82
2022/09/22 08:11:23;;;;;;;;;;;;;;;18.25;45.53;100948.41;5059371;28;19920;-83
2022/09/22 08:13:54;;;;;;;;;;;;;;;18.58;45.03;100951.22;5033780;28;19917;-83
2022/09/22 08:16:22;;;;;;;;;;;;;;;18.86;44.79;100942.06;5054984;28;19924;-81
2022/09/22 08:18:55;;;;;;;;;;;;;;;19.12;43.86;100938.50;5069023;28;20377;-83
2022/09/22 08:21:22;;;;;;;;;;;;;;;19.51;43.17;100939.50;5066847;28;19920;-84
2022/09/22 08:23:51;;;;;;;;;;;;;;;20.53;40.61;100935.06;5070799;28;20392;-86
2022/09/22 08:26:17;;;;;;;;;;;;;;;21.46;38.31;100937.09;5068051;28;19965;-88
2022/09/22 08:28:43;;;;;;;;;;;;;;;21.45;37.01;100929.13;5074608;28;19912;-84
2022/09/22 08:31:12;;;;;;;;;;;;;;;21.42;36.23;100933.16;5046471;28;20307;-86
2022/09/22 08:33:39;;;;;;;;;;;;;;;21.60;35.87;100940.53;5057480;28;19924;-89
2022/09/22 08:36:06;;;;;;;;;;;;;;;21.82;35.68;100942.81;5058247;28;19920;-86
2022/09/22 08:38:34;;;;;;;;;;;;;;;22.58;34.75;100935.09;5036552;28;20031;-87
2022/09/22 08:41:14;;;;;;;;;;;;;;;22.65;33.78;100941.31;5038993;28;20233;-86
2022/09/22 08:43:56;;;;;;;;;;;;;;;22.52;34.00;100948.66;5039130;28;19916;-86
2022/09/22 08:46:31;;;;;;;;;;;;;;;22.17;34.02;100944.91;5027434;28;19913;-86
2022/09/22 08:51:52;;;;;;;;;;;;;;;23.36;32.04;100942.25;5050439;28;19993;-85
2022/09/22 08:54:25;;;;;;;;;;;;;;;22.97;32.48;100937.22;5036037;28;19962;-87
2022/09/22 08:56:53;;;;;;;;;;;;;;;22.27;33.14;100934.28;5069266;28;19920;-87
2022/09/22 08:59:22;;;;;;;;;;;;;;;22.72;31.74;100931.09;5066245;28;19934;-86
2022/09/22 09:01:59;;;;;;;;;;;;;;;23.50;30.81;100935.44;5047482;28;20356;-88
2022/09/22 09:04:35;;;;;;;;;;;;;;;23.95;30.23;100939.44;5066880;28;19924;-86
2022/09/22 09:07:03;;;;;;;;;;;;;;;23.80;30.02;100931.75;5042497;28;19920;-85
2022/09/22 09:09:42;;;;;;;;;;;;;;;23.81;29.33;100927.91;5024890;28;19916;-84
2022/09/22 09:12:13;;;;;;;;;;;;;;;23.57;29.92;100933.41;5076378;28;19926;-84
2022/09/22 09:14:39;;;;;;;;;;;;;;;24.40;28.70;100930.47;5066934;28;19908;-87
2022/09/22 09:17:14;;;;;;;;;;;;;;;24.96;28.40;100928.72;5067280;28;20298;-86
2022/09/22 09:19:42;;;;;;;;;;;;;;;25.69;26.70;100931.47;5070100;28;20328;-86
2022/09/22 09:22:17;;;;;;;;;;;;;;;25.96;26.55;100927.97;5071549;28;20617;-86
2022/09/22 09:24:47;;;;;;;;;;;;;;;26.48;25.16;100916.41;5067556;28;19916;-86
2022/09/22 09:27:12;;;;;;;;;;;;;;;26.76;25.03;100914.47;5067059;28;19923;-86
2022/09/22 09:29:40;;;;;;;;;;;;;;;26.82;25.31;100922.53;5052646;28;19921;-86
2022/09/22 09:32:07;;;;;;;;;;;;;;;26.57;25.83;100920.38;5051664;28;19912;-85
2022/09/22 09:34:32;;;;;;;;;;;;;;;26.98;24.60;100920.75;5066260;28;20400;-86
2022/09/22 09:37:06;;;;;;;;;;;;;;;26.33;25.36;100923.44;5070146;28;20012;-86
2022/09/22 09:39:38;;;;;;;;;;;;;;;26.56;25.12;100929.75;5070006;28;19913;-88
2022/09/22 09:42:22;;;;;;;;;;;;;;;26.06;25.07;100930.88;5069682;28;19913;-87
2022/09/22 09:44:52;;;;;;;;;;;;;;;26.24;24.84;100926.91;5056334;28;19927;-88
2022/09/22 09:47:37;;;;;;;;;;;;;;;25.45;26.14;100925.34;5052294;28;19920;-86
2022/09/22 09:50:05;;;;;;;;;;;;;;;25.36;25.68;100933.22;5067772;28;19913;-86
2022/09/22 09:52:31;;;;;;;;;;;;;;;25.66;25.85;100926.44;5068407;28;20007;-86
2022/09/22 09:54:58;;;;;;;;;;;;;;;25.23;26.56;100925.31;5051223;28;19998;-86
2022/09/22 09:57:23;;;;;;;;;;;;;;;24.38;27.90;100919.72;5069302;28;19916;-86
2022/09/22 10:03:14;;;;;;;;;;;;;;;23.55;28.67;100919.13;5073230;28;20374;-86
2022/09/22 10:05:39;;;;;;;;;;;;;;;23.75;29.11;100910.50;5042205;28;19978;-86
2022/09/22 10:08:16;;;;;;;;;;;;;;;23.73;28.79;100909.03;5041918;28;19920;-87
2022/09/22 10:10:41;;;;;;;;;;;;;;;23.82;28.93;100907.63;5035217;28;19939;-85
2022/09/22 10:13:07;;;;;;;;;;;;;;;23.09;29.82;100895.28;5042649;28;20251;-85
2022/09/22 10:15:36;;;;;;;;;;;;;;;22.58;30.04;100894.84;5058477;28;19923;-82
2022/09/22 10:18:01;;;;;;;;;;;;;;;22.89;29.85;100899.16;5059187;28;20012;-85
2022/09/22 10:20:30;;;;;;;;;;;;;;;22.05;30.64;100899.13;5045093;28;19999;-85
2022/09/22 10:22:55;;;;;;;;;;;;;;;21.60;31.38;100907.69;5048128;28;19923;-85
2022/09/22 10:25:22;;;;;;;;;;;;;;;21.50;31.60;100900.03;5064151;28;19917;-86
2022/09/22 10:28:13;;;;;;;;;;;;;;;21.54;31.16;100903.16;5046963;28;19923;-83
2022/09/22 10:30:39;;;;;;;;;;;;;;;21.40;31.88;100902.47;5072722;28;19942;-83
2022/09/22 10:33:16;;;;;;;;;;;;;;;21.52;31.86;100897.06;5055073;28;19913;-85
2022/09/22 10:35:43;;;;;;;;;;;;;;;21.62;31.89;100894.63;5073238;28;19913;-85
2022/09/22 10:38:22;;;;;;;;;;;;;;;21.58;32.10;100893.41;5074250;28;19981;-84
2022/09/22 10:41:06;;;;;;;;;;;;;;;21.77;31.35;100887.94;5053840;28;19920;-84
2022/09/22 10:43:44;;;;;;;;;;;;;;;21.71;30.99;100882.31;5079324;28;19988;-82
2022/09/22 10:46:15;;;;;;;;;;;;;;;21.80;31.61;100882.03;5085258;28;19920;-84
2022/09/22 10:48:46;;;;;;;;;;;;;;;21.69;30.25;100884.44;5066044;28;19935;-84
2022/09/22 10:51:15;;;;;;;;;;;;;;;21.73;30.56;100883.97;5054349;28;19912;-84
2022/09/22 10:53:59;;;;;;;;;;;;;;;22.09;30.49;100883.09;5071360;28;19916;-84
2022/09/22 10:56:36;;;;;;;;;;;;;;;22.09;30.24;100875.72;5072113;28;19912;-84
2022/09/22 10:59:17;;;;;;;;;;;;;;;22.11;29.79;100876.31;5043710;28;19919;-85
2022/09/22 11:01:51;;;;;;;;;;;;;;;21.71;30.39;100884.22;5072221;28;19912;-84
2022/09/22 11:04:32;;;;;;;;;;;;;;;21.99;30.17;100875.44;5072062;28;20299;-83
2022/09/22 11:13:10;;;;;;;;;;;;;;;21.45;31.64;100874.44;5041266;28;20296;-86
2022/09/22 11:15:42;;;;;;;;;;;;;;;21.34;31.63;100875.16;5050001;28;19920;-84
2022/09/22 11:18:19;;;;;;;;;;;;;;;20.81;32.67;100866.41;5062352;28;19965;-84
2022/09/22 11:20:52;;;;;;;;;;;;;;;20.54;32.61;100870.41;5052960;28;19978;-86
2022/09/22 11:23:36;;;;;;;;;;;;;;;20.08;33.18;100866.06;5046018;28;19923;-87
2022/09/22 11:26:02;;;;;;;;;;;;;;;20.45;33.02;100880.75;5061627;28;19921;-92
2022/09/22 11:28:42;;;;;;;;;;;;;;;20.38;33.20;100875.31;5055574;28;19913;-84
2022/09/22 11:31:08;;;;;;;;;;;;;;;20.36;33.80;100874.69;5055726;28;20300;-82
2022/09/22 11:33:53;;;;;;;;;;;;;;;20.15;33.78;100875.06;5029347;28;19972;-92
2022/09/22 11:36:33;;;;;;;;;;;;;;;20.10;34.12;100877.59;5047540;28;19935;-86
2022/09/22 11:38:59;;;;;;;;;;;;;;;20.09;34.22;100865.00;5055275;28;19920;-83
2022/09/22 11:41:36;;;;;;;;;;;;;;;19.86;34.33;100869.13;5053623;28;19917;-84
2022/09/22 11:44:17;;;;;;;;;;;;;;;20.00;34.46;100868.00;5035919;28;19932;-84
2022/09/22 11:46:59;;;;;;;;;;;;;;;20.17;34.23;100859.28;5059074;28;19921;-82
2022/09/22 11:49:31;;;;;;;;;;;;;;;20.38;34.07;100863.56;5054158;28;19917;-84
2022/09/22 11:51:59;;;;;;;;;;;;;;;20.28;33.84;100855.88;5040794;28;19967;-84
2022/09/22 11:54:44;;;;;;;;;;;;;;;20.32;33.62;100856.25;5033600;28;19921;-85
2022/09/22 11:57:10;;;;;;;;;;;;;;;20.37;33.49;100861.88;5054871;28;20004;-86
2022/09/22 11:59:38;;;;;;;;;;;;;;;20.79;33.55;100852.16;5035489;28;20013;-90
2022/09/22 12:02:25;;;;;;;;;;;;;;;20.82;33.20;100851.69;5077321;28;20015;-92
2022/09/22 12:04:58;;;;;;;;;;;;;;;20.57;33.09;100842.66;5070743;28;19920;-88
2022/09/22 12:07:36;;;;;;;;;;;;;;;20.41;32.83;100850.28;5084455;28;19912;-91
2022/09/22 12:10:11;;;;;;;;;;;;;;;20.44;32.69;100849.88;5038660;28;19952;-91
2022/09/22 12:12:38;;;;;;;;;;;;;;;20.37;33.05;100860.00;4979166;28;19972;-94
2022/09/22 12:15:25;;;;;;;;;;;;;;;20.24;33.81;100857.34;5003087;28;19949;-92
2022/09/22 12:18:11;;;;;;;;;;;;;;;20.33;32.96;100841.56;4988419;28;20020;-91
2022/09/22 12:20:55;;;;;;;;;;;;;;;20.24;33.05;100846.44;5002040;28;19921;-93
2022/09/22 12:23:38;;;;;;;;;;;;;;;20.32;33.40;100851.66;4994704;28;19914;-89
2022/09/22 12:26:06;;;;;;;;;;;;;;;20.09;34.37;100852.22;4987440;28;20313;-90
2022/09/22 12:28:32;;;;;;;;;;;;;;;20.05;34.50;100848.25;4998559;28;19918;-89
2022/09/22 12:31:06;;;;;;;;;;;;;;;20.28;32.67;100855.88;4978680;28;19930;-88
2022/09/22 12:33:34;;;;;;;;;;;;;;;20.26;31.81;100857.97;4994906;28;19913;-87
2022/09/22 12:36:01;;;;;;;;;;;;;;;20.18;31.90;100864.53;4984972;28;19929;-88
2022/09/22 12:38:30;;;;;;;;;;;;;;;20.11;31.99;100851.97;5007995;28;19968;-88
2022/09/22 12:40:58;;;;;;;;;;;;;;;20.03;32.90;100851.19;4991341;28;19928;-86
2022/09/22 12:43:27;;;;;;;;;;;;;;;19.72;33.13;100851.16;5009316;28;19928;-88
2022/09/22 12:45:53;;;;;;;;;;;;;;;19.43;33.84;100847.00;5006568;28;19922;-89
2022/09/22 12:48:23;;;;;;;;;;;;;;;19.39;33.79;100846.63;4974188;28;19922;-88
2022/09/22 12:50:51;;;;;;;;;;;;;;;19.38;33.69;100850.38;4994161;28;19949;-89
2022/09/22 12:53:19;;;;;;;;;;;;;;;19.52;33.73;100852.00;5000319;28;20012;-87
2022/09/22 12:55:45;;;;;;;;;;;;;;;19.38;34.44;100850.38;4999760;28;20372;-84
2022/09/22 12:58:39;;;;;;;;;;;;;;;19.63;33.71;100857.88;5052669;28;20347;-87
2022/09/22 13:01:36;;;;;;;;;;;;;;;19.28;34.92;100850.00;5044646;28;20332;-86
2022/09/22 13:04:03;;;;;;;;;;;;;;;19.31;34.81;100855.03;4950710;28;19969;-87
2022/09/22 13:06:31;;;;;;;;;;;;;;;19.40;34.81;100853.75;4952986;29;20046;-87
2022/09/22 13:09:00;;;;;;;;;;;;;;;19.44;34.93;100848.72;4965883;28;19922;-88
2022/09/22 13:11:44;;;;;;;;;;;;;;;19.55;35.22;100851.59;4995825;28;20452;-88